Lakeport, New York
Current Conditions -  °F | °C
As of 6:54 AM on Saturday 25 Oct 2014 (Local Time) from KSYR Reporting Station
Overcast Overcast  
Wind Chill: 50°   Ceiling: 3200
Heat Index: 50°   Visibility: 8mi
Dew Point: 45°   Wind: 5mph
Humidity: 83%   Direction: 210°SSW
Pressure: 29.84"   Gusts: NA
Location:  43.0618°N, 75.8688°W
Report Text: KSYR 251054Z 21004KT 8SM OVC032 10/07 A2984 RMK AO2 SLP102 T01000072
Loading
Personal Weather Stations






























Interactive Weather Map
Tropical Storm Tracking
New forecast layout! Learn more

10-Day Weather Forecast

Advertisements
Track Severe Weather on mobile